createdAt,value
2022-09-26T00:01:41.725Z,59.35
2022-09-26T00:04:15.760Z,59.53
2022-09-26T00:06:44.501Z,59.24
2022-09-26T00:09:13.649Z,59.56
2022-09-26T00:11:42.654Z,59.64
2022-09-26T00:14:29.121Z,59.61
2022-09-26T00:16:57.845Z,59.48
2022-09-26T00:19:27.670Z,59.25
2022-09-26T00:21:56.160Z,59.55
2022-09-26T00:24:24.518Z,59.48
2022-09-26T00:26:52.821Z,59.38
2022-09-26T00:29:21.206Z,59.60
2022-09-26T00:31:49.800Z,59.35
2022-09-26T00:34:20.015Z,59.44
2022-09-26T00:36:51.183Z,59.49
2022-09-26T00:39:19.741Z,59.37
2022-09-26T00:41:48.153Z,59.57
2022-09-26T00:44:47.802Z,59.66
2022-09-26T00:47:41.398Z,59.48
2022-09-26T00:50:16.104Z,59.48
2022-09-26T00:52:47.986Z,59.39
2022-09-26T00:55:18.772Z,59.48
2022-09-26T00:57:51.608Z,59.40
2022-09-26T01:00:20.239Z,59.46
2022-09-26T01:02:49.518Z,59.59
2022-09-26T01:05:20.051Z,59.55
2022-09-26T01:07:50.385Z,59.47
2022-09-26T01:10:19.085Z,59.12
2022-09-26T01:12:47.743Z,59.42
2022-09-26T01:15:16.258Z,59.60
2022-09-26T01:17:45.790Z,59.68
2022-09-26T01:20:26.756Z,59.62
2022-09-26T01:23:35.887Z,59.29
2022-09-26T01:26:40.104Z,59.50
2022-09-26T01:29:29.742Z,59.60
2022-09-26T01:32:22.413Z,59.58
2022-09-26T01:34:56.682Z,59.68
2022-09-26T01:37:30.624Z,59.29
2022-09-26T01:40:06.089Z,59.62
2022-09-26T01:42:39.625Z,59.16
2022-09-26T01:45:12.426Z,59.66
2022-09-26T01:47:43.939Z,59.51
2022-09-26T01:50:16.500Z,59.61
2022-09-26T01:52:48.891Z,59.30
2022-09-26T01:55:19.587Z,59.68
2022-09-26T01:57:50.703Z,59.60
2022-09-26T02:00:19.830Z,59.30
2022-09-26T02:02:50.942Z,59.64
2022-09-26T02:05:26.293Z,59.56
2022-09-26T02:07:56.945Z,59.24
2022-09-26T02:10:28.942Z,59.62
2022-09-26T02:13:01.258Z,59.53
2022-09-26T02:15:32.572Z,59.45
2022-09-26T02:18:08.949Z,59.43
2022-09-26T02:20:39.691Z,59.75
2022-09-26T02:23:08.870Z,59.57
2022-09-26T02:25:37.614Z,59.28
2022-09-26T02:28:06.064Z,59.84
2022-09-26T02:30:34.786Z,59.71
2022-09-26T02:33:04.766Z,59.46
2022-09-26T02:35:52.582Z,59.63
2022-09-26T02:38:21.062Z,59.35
2022-09-26T02:41:02.142Z,59.56
2022-09-26T02:43:45.424Z,59.23
2022-09-26T02:46:28.682Z,59.75
2022-09-26T02:49:09.522Z,59.65
2022-09-26T02:51:55.515Z,59.61
2022-09-26T02:54:28.083Z,59.54
2022-09-26T02:57:08.089Z,59.39
2022-09-26T02:59:45.210Z,59.58
2022-09-26T03:02:16.606Z,59.42
2022-09-26T03:04:55.047Z,59.66
2022-09-26T03:07:27.961Z,59.80
2022-09-26T03:09:57.605Z,59.68
2022-09-26T03:12:26.973Z,59.67
2022-09-26T03:14:58.663Z,59.73
2022-09-26T03:17:29.079Z,59.70
2022-09-26T03:20:02.970Z,59.55
2022-09-26T03:22:33.532Z,59.85
2022-09-26T03:25:01.994Z,59.62
2022-09-26T03:27:33.127Z,59.50
2022-09-26T03:30:01.732Z,59.69
2022-09-26T03:32:30.177Z,59.69
2022-09-26T03:34:59.931Z,59.75
2022-09-26T03:37:28.396Z,59.47
2022-09-26T03:39:56.791Z,59.77
2022-09-26T03:42:38.797Z,59.65
2022-09-26T03:45:10.385Z,59.63
2022-09-26T03:47:58.022Z,59.90
2022-09-26T03:50:28.341Z,59.78
2022-09-26T03:52:56.883Z,59.48
2022-09-26T03:55:25.234Z,59.77
2022-09-26T03:57:53.624Z,59.62
2022-09-26T04:00:30.054Z,59.54
2022-09-26T04:03:03.044Z,59.96
2022-09-26T04:05:41.170Z,59.49
2022-09-26T04:08:10.164Z,59.69
2022-09-26T04:10:40.102Z,59.74
2022-09-26T04:13:09.676Z,59.74
2022-09-26T04:15:39.155Z,59.64
2022-09-26T04:18:13.352Z,59.78
2022-09-26T04:20:44.062Z,59.89
2022-09-26T04:23:13.547Z,59.50
2022-09-26T04:25:42.081Z,59.74
2022-09-26T04:28:10.466Z,59.62
2022-09-26T04:30:40.097Z,59.68
2022-09-26T04:33:12.451Z,59.42
2022-09-26T04:35:53.292Z,59.75
2022-09-26T04:38:21.748Z,59.64
2022-09-26T04:40:50.196Z,59.76
2022-09-26T04:43:18.614Z,59.93
2022-09-26T04:45:48.248Z,59.84
2022-09-26T04:48:16.929Z,59.95
2022-09-26T04:50:45.963Z,59.65
2022-09-26T04:53:16.211Z,59.98
2022-09-26T04:55:54.855Z,59.83
2022-09-26T04:58:23.464Z,59.71
2022-09-26T05:00:52.487Z,59.89
2022-09-26T05:03:36.668Z,59.96
2022-09-26T05:06:07.223Z,59.82
2022-09-26T05:08:37.487Z,60.21
2022-09-26T05:11:07.368Z,59.87
2022-09-26T05:13:37.346Z,59.92
2022-09-26T05:16:08.818Z,59.97
2022-09-26T05:18:39.283Z,59.69
2022-09-26T05:21:08.738Z,59.96
2022-09-26T05:23:56.251Z,59.68
2022-09-26T05:26:27.106Z,59.77
2022-09-26T05:28:56.580Z,60.00
2022-09-26T05:31:30.163Z,59.80
2022-09-26T05:33:58.662Z,59.86
2022-09-26T05:36:27.696Z,59.68
2022-09-26T05:38:57.792Z,59.95
2022-09-26T05:41:28.038Z,59.53
2022-09-26T05:43:56.983Z,59.96
2022-09-26T05:46:28.394Z,59.90
2022-09-26T05:49:00.131Z,59.96
2022-09-26T05:51:29.368Z,59.56
2022-09-26T05:53:59.216Z,59.78
2022-09-26T05:56:29.127Z,60.03
2022-09-26T05:59:09.928Z,59.66
2022-09-26T06:01:57.565Z,59.82
2022-09-26T06:04:44.262Z,59.78
2022-09-26T06:07:40.080Z,59.86
2022-09-26T06:10:14.048Z,59.55
2022-09-26T06:12:52.084Z,59.89
2022-09-26T06:15:20.686Z,59.86
2022-09-26T06:17:49.297Z,59.83
2022-09-26T06:20:19.420Z,59.87
2022-09-26T06:22:48.332Z,59.55
2022-09-26T06:25:18.319Z,59.67
2022-09-26T06:27:47.496Z,59.82
2022-09-26T06:30:17.779Z,59.66
2022-09-26T06:32:47.352Z,59.77
2022-09-26T06:35:22.621Z,59.80
2022-09-26T06:38:09.769Z,59.72
2022-09-26T06:40:39.679Z,59.63
2022-09-26T06:43:08.199Z,59.71
2022-09-26T06:45:56.853Z,59.34
2022-09-26T06:48:42.995Z,59.70
2022-09-26T06:51:21.489Z,59.97
2022-09-26T06:53:49.924Z,59.66
2022-09-26T06:56:23.555Z,59.51
2022-09-26T06:58:51.973Z,59.28
2022-09-26T07:01:24.779Z,59.77
2022-09-26T07:04:04.750Z,59.82
2022-09-26T07:06:39.050Z,59.38
2022-09-26T07:09:12.195Z,59.38
2022-09-26T07:12:14.310Z,59.41
2022-09-26T07:14:47.899Z,59.45
2022-09-26T07:17:23.462Z,59.26
2022-09-26T07:20:11.440Z,59.19
2022-09-26T07:22:58.768Z,59.23
2022-09-26T07:25:27.404Z,59.11
2022-09-26T07:27:57.666Z,59.15
2022-09-26T07:30:36.089Z,59.23
2022-09-26T07:33:11.015Z,59.32
2022-09-26T07:35:46.555Z,59.21
2022-09-26T07:38:15.193Z,59.02
2022-09-26T07:40:44.228Z,59.05
2022-09-26T07:43:35.618Z,59.07
2022-09-26T07:46:20.072Z,59.27
2022-09-26T07:49:09.050Z,59.07
2022-09-26T07:52:00.910Z,58.64
2022-09-26T07:54:40.066Z,58.67
2022-09-26T07:57:27.216Z,59.19
2022-09-26T08:00:19.551Z,59.07
2022-09-26T08:03:02.056Z,59.13
2022-09-26T08:05:32.380Z,58.67
2022-09-26T08:08:01.451Z,59.13
2022-09-26T08:10:48.691Z,59.29
2022-09-26T08:13:36.040Z,58.93
2022-09-26T08:16:24.433Z,58.88
2022-09-26T08:18:56.197Z,59.09
2022-09-26T08:21:26.499Z,59.18
2022-09-26T08:23:59.873Z,58.69
2022-09-26T08:26:46.716Z,58.91
2022-09-26T08:29:21.738Z,58.84
2022-09-26T08:31:54.856Z,58.94
2022-09-26T08:34:25.740Z,58.81
2022-09-26T08:37:31.112Z,58.79
2022-09-26T08:40:28.127Z,58.81
2022-09-26T08:43:04.298Z,58.69
2022-09-26T08:46:32.556Z,58.82
2022-09-26T08:49:42.373Z,58.73
2022-09-26T08:52:31.738Z,58.34
2022-09-26T08:55:03.491Z,58.51
2022-09-26T08:57:35.758Z,58.23
2022-09-26T09:00:15.463Z,58.21
2022-09-26T09:02:49.126Z,58.20
2022-09-26T09:05:23.339Z,58.28
2022-09-26T09:07:55.004Z,58.45
2022-09-26T09:10:35.836Z,58.57
2022-09-26T09:13:34.117Z,58.41
2022-09-26T09:16:23.866Z,58.63
2022-09-26T09:19:08.996Z,58.37
2022-09-26T09:22:06.039Z,58.28
2022-09-26T09:25:00.280Z,58.18
2022-09-26T09:28:00.352Z,58.32
2022-09-26T09:30:36.725Z,58.21
2022-09-26T09:33:26.234Z,58.08
2022-09-26T09:36:17.989Z,57.83
2022-09-26T09:39:06.355Z,57.83
2022-09-26T09:41:54.689Z,57.91
2022-09-26T09:44:31.410Z,58.13
2022-09-26T09:47:00.499Z,58.32
2022-09-26T09:49:29.206Z,58.29
2022-09-26T09:52:08.957Z,58.34
2022-09-26T09:54:46.182Z,58.11
2022-09-26T09:57:34.951Z,58.53
2022-09-26T10:00:11.578Z,58.23
2022-09-26T10:03:18.989Z,58.21
2022-09-26T10:05:51.682Z,58.18
2022-09-26T10:08:31.267Z,58.11
2022-09-26T10:11:23.378Z,58.52
2022-09-26T10:14:03.102Z,58.37
2022-09-26T10:17:15.206Z,58.22
2022-09-26T10:20:04.225Z,58.01
2022-09-26T10:22:38.178Z,58.15
2022-09-26T10:25:09.878Z,58.37
2022-09-26T10:27:41.081Z,58.11
2022-09-26T10:30:26.892Z,57.91
2022-09-26T10:33:00.234Z,57.66
2022-09-26T10:35:52.854Z,57.81
2022-09-26T10:38:24.123Z,57.40
2022-09-26T10:40:59.718Z,57.75
2022-09-26T10:43:32.851Z,57.67
2022-09-26T10:46:11.970Z,57.48
2022-09-26T10:48:51.760Z,57.40
2022-09-26T10:51:45.446Z,57.31
2022-09-26T10:54:18.804Z,57.32
2022-09-26T10:56:50.885Z,57.08
2022-09-26T10:59:27.269Z,57.46
2022-09-26T11:01:59.392Z,57.42
2022-09-26T11:04:47.439Z,57.21
2022-09-26T11:07:42.817Z,57.04
2022-09-26T11:10:38.344Z,57.40
2022-09-26T11:13:22.487Z,57.22
2022-09-26T11:16:02.377Z,57.39
2022-09-26T11:18:37.137Z,57.78
2022-09-26T11:21:27.479Z,57.59
2022-09-26T11:24:02.970Z,57.71
2022-09-26T11:26:36.440Z,57.59
2022-09-26T11:29:13.458Z,56.97
2022-09-26T11:32:06.481Z,56.87
2022-09-26T11:34:48.422Z,56.77
2022-09-26T11:37:54.598Z,56.72
2022-09-26T11:40:34.693Z,56.59
2022-09-26T11:43:16.492Z,56.63
2022-09-26T11:45:59.047Z,56.69
2022-09-26T11:49:01.992Z,56.26
2022-09-26T11:52:02.111Z,56.46
2022-09-26T11:54:46.979Z,56.59
2022-09-26T11:57:35.524Z,56.49
2022-09-26T12:00:09.194Z,56.54
2022-09-26T12:03:05.027Z,56.63
2022-09-26T12:05:44.206Z,56.62
2022-09-26T12:08:24.730Z,56.89
2022-09-26T12:10:57.679Z,56.88
2022-09-26T12:13:35.203Z,56.86
2022-09-26T12:16:12.830Z,56.88
2022-09-26T12:18:49.525Z,57.18
2022-09-26T12:21:27.398Z,57.10
2022-09-26T12:23:57.758Z,56.56
2022-09-26T12:26:34.721Z,56.32
2022-09-26T12:29:16.250Z,55.89
2022-09-26T12:31:54.804Z,56.01
2022-09-26T12:34:48.146Z,55.99
2022-09-26T12:37:33.581Z,56.23
2022-09-26T12:40:14.253Z,56.52
2022-09-26T12:43:05.744Z,56.68
2022-09-26T12:45:53.556Z,56.68
2022-09-26T12:48:40.166Z,56.75
2022-09-26T12:51:19.967Z,56.80
2022-09-26T12:54:17.662Z,56.75
2022-09-26T12:56:53.175Z,56.67
2022-09-26T12:59:52.447Z,56.63
2022-09-26T13:02:37.582Z,55.94
2022-09-26T13:05:17.459Z,56.08
2022-09-26T13:07:54.696Z,56.22
2022-09-26T13:10:38.380Z,55.85
2022-09-26T13:13:33.774Z,55.58
2022-09-26T13:16:13.714Z,56.07
2022-09-26T13:18:44.788Z,56.02
2022-09-26T13:21:16.507Z,55.86
2022-09-26T13:23:53.578Z,55.95
2022-09-26T13:26:29.053Z,55.98
2022-09-26T13:29:16.662Z,56.44
2022-09-26T13:31:48.724Z,55.82
2022-09-26T13:34:21.501Z,55.95
2022-09-26T13:36:50.832Z,56.23
2022-09-26T13:39:26.869Z,56.06
2022-09-26T13:42:01.360Z,56.09
2022-09-26T13:44:55.722Z,56.35
2022-09-26T13:47:31.226Z,55.86
2022-09-26T13:50:03.442Z,56.07
2022-09-26T13:52:43.169Z,56.21
2022-09-26T13:55:14.498Z,56.15
2022-09-26T13:57:51.351Z,56.07
2022-09-26T14:00:49.113Z,55.92
2022-09-26T14:03:41.688Z,55.67
2022-09-26T14:06:29.389Z,55.35
2022-09-26T14:09:24.251Z,55.62
2022-09-26T14:12:19.093Z,55.33
2022-09-26T14:14:54.114Z,55.17
2022-09-26T14:18:15.413Z,55.07
2022-09-26T14:20:55.004Z,55.32
2022-09-26T14:23:44.888Z,55.68
2022-09-26T14:26:21.032Z,55.07
2022-09-26T14:28:54.564Z,55.34
2022-09-26T14:31:40.180Z,55.19
2022-09-26T14:34:20.162Z,55.14
2022-09-26T14:36:49.425Z,55.12
2022-09-26T14:39:40.481Z,55.08
2022-09-26T14:42:19.132Z,55.04
2022-09-26T14:44:52.575Z,55.32
2022-09-26T14:47:22.629Z,54.97
2022-09-26T14:49:59.047Z,55.01
2022-09-26T14:52:27.671Z,55.00
2022-09-26T14:58:17.229Z,55.01
2022-09-26T15:00:47.806Z,54.90
2022-09-26T15:03:18.685Z,55.17
2022-09-26T15:05:47.914Z,54.91
2022-09-26T15:08:24.783Z,54.84
2022-09-26T15:10:54.439Z,54.72
2022-09-26T15:13:35.308Z,54.79
2022-09-26T15:16:15.842Z,54.77
2022-09-26T15:18:48.178Z,54.76
2022-09-26T15:21:27.055Z,54.78
2022-09-26T15:23:56.447Z,55.00
2022-09-26T15:26:26.446Z,54.87
2022-09-26T15:28:56.493Z,55.13
2022-09-26T15:31:28.075Z,54.99
2022-09-26T15:34:16.110Z,55.01
2022-09-26T15:36:45.521Z,55.24
2022-09-26T15:39:46.724Z,55.30
2022-09-26T15:42:46.542Z,54.97
2022-09-26T15:45:29.775Z,54.93
2022-09-26T15:47:59.742Z,55.03
2022-09-26T15:50:33.173Z,55.14
2022-09-26T15:53:05.216Z,55.35
2022-09-26T15:55:38.455Z,55.47
2022-09-26T15:58:07.971Z,55.66
2022-09-26T16:00:38.237Z,55.51
2022-09-26T16:03:28.529Z,55.57
2022-09-26T16:05:58.100Z,55.64
2022-09-26T16:08:28.656Z,55.61
2022-09-26T16:10:58.137Z,55.80
2022-09-26T16:13:28.003Z,55.69
2022-09-26T16:16:03.355Z,55.75
2022-09-26T16:18:37.317Z,55.62
2022-09-26T16:21:18.553Z,55.63
2022-09-26T16:23:49.259Z,55.46
2022-09-26T16:26:28.724Z,55.82
2022-09-26T16:28:57.807Z,55.82
2022-09-26T16:31:29.531Z,56.12
2022-09-26T16:33:59.366Z,55.88
2022-09-26T16:36:30.249Z,56.08
2022-09-26T16:39:00.604Z,56.08
2022-09-26T16:42:01.693Z,56.20
2022-09-26T16:44:33.623Z,55.97
2022-09-26T16:47:05.466Z,55.85
2022-09-26T16:49:46.681Z,56.37
2022-09-26T16:52:34.331Z,56.21
2022-09-26T16:55:05.933Z,56.42
2022-09-26T16:57:35.559Z,56.47
2022-09-26T17:00:24.944Z,56.25
2022-09-26T17:02:53.214Z,56.29
2022-09-26T17:05:22.439Z,56.28
2022-09-26T17:07:52.142Z,56.36
2022-09-26T17:10:22.168Z,56.39
2022-09-26T17:12:52.856Z,56.27
2022-09-26T17:15:26.962Z,56.26
2022-09-26T17:17:56.827Z,55.97
2022-09-26T17:20:26.903Z,55.94
2022-09-26T17:22:56.687Z,55.61
2022-09-26T17:26:33.622Z,54.66
2022-09-26T17:29:45.640Z,54.87
2022-09-26T17:32:16.901Z,54.97
2022-09-26T17:34:45.488Z,54.84
2022-09-26T17:37:16.076Z,54.73
2022-09-26T17:39:48.333Z,55.16
2022-09-26T17:42:17.141Z,55.17
2022-09-26T17:44:47.679Z,55.11
2022-09-26T17:47:16.732Z,54.86
2022-09-26T17:49:49.368Z,55.11
2022-09-26T17:52:25.166Z,55.23
2022-09-26T17:54:57.849Z,55.56
2022-09-26T17:57:27.808Z,55.79
2022-09-26T17:59:56.300Z,55.79
2022-09-26T18:02:27.716Z,55.62
2022-09-26T18:04:56.855Z,55.05
2022-09-26T18:07:25.144Z,55.21
2022-09-26T18:09:55.442Z,55.48
2022-09-26T18:12:25.425Z,55.25
2022-09-26T18:15:03.188Z,55.40
2022-09-26T18:17:32.163Z,54.87
2022-09-26T18:20:00.478Z,55.07
2022-09-26T18:22:31.997Z,54.87
2022-09-26T18:25:05.185Z,55.50
2022-09-26T18:27:36.675Z,55.17
2022-09-26T18:30:06.054Z,55.20
2022-09-26T18:32:36.630Z,55.12
2022-09-26T18:35:05.230Z,55.45
2022-09-26T18:37:33.452Z,55.78
2022-09-26T18:40:04.551Z,55.63
2022-09-26T18:42:33.074Z,55.85
2022-09-26T18:45:04.861Z,55.95
2022-09-26T18:48:04.986Z,56.26
2022-09-26T18:50:36.549Z,56.01
2022-09-26T18:53:05.234Z,56.07
2022-09-26T18:55:52.377Z,56.06
2022-09-26T18:58:27.704Z,56.07
2022-09-26T19:00:58.171Z,55.96
2022-09-26T19:03:28.736Z,56.18
2022-09-26T19:06:01.704Z,56.35
2022-09-26T19:08:33.987Z,56.35
2022-09-26T19:11:11.048Z,56.38
2022-09-26T19:13:39.615Z,56.24
2022-09-26T19:16:08.388Z,56.20
2022-09-26T19:18:36.959Z,56.18
2022-09-26T19:21:08.442Z,56.40
2022-09-26T19:23:37.137Z,56.56
2022-09-26T19:26:07.088Z,56.28
2022-09-26T19:28:36.653Z,56.28
2022-09-26T19:31:05.405Z,56.26
2022-09-26T19:33:33.808Z,56.44
2022-09-26T19:36:02.474Z,56.63
2022-09-26T19:38:30.930Z,56.29
2022-09-26T19:40:59.391Z,56.45
2022-09-26T19:43:29.195Z,56.51
2022-09-26T19:45:57.574Z,56.50
2022-09-26T19:48:25.869Z,56.33
2022-09-26T19:50:54.269Z,56.26
2022-09-26T19:53:24.366Z,56.41
2022-09-26T19:55:55.757Z,56.41
2022-09-26T19:58:25.587Z,56.54
2022-09-26T20:00:56.839Z,56.80
2022-09-26T20:03:28.668Z,56.68
2022-09-26T20:05:57.334Z,56.66
2022-09-26T20:08:27.065Z,56.34
2022-09-26T20:10:56.632Z,56.87
2022-09-26T20:13:24.964Z,56.78
2022-09-26T20:15:56.713Z,56.73
2022-09-26T20:18:25.184Z,56.58
2022-09-26T20:20:55.271Z,57.02
2022-09-26T20:23:25.254Z,56.72
2022-09-26T20:25:54.897Z,56.73
2022-09-26T20:28:23.539Z,57.08
2022-09-26T20:30:56.541Z,56.73
2022-09-26T20:33:27.543Z,56.99
2022-09-26T20:36:03.186Z,56.85
2022-09-26T20:38:35.729Z,56.90
2022-09-26T20:41:12.722Z,56.72
2022-09-26T20:43:42.788Z,56.65
2022-09-26T20:46:11.619Z,57.18
2022-09-26T20:48:43.078Z,56.91
2022-09-26T20:51:17.940Z,57.05
2022-09-26T20:53:46.268Z,56.81
2022-09-26T20:56:20.858Z,56.77
2022-09-26T20:58:50.055Z,56.86
2022-09-26T21:01:19.715Z,56.77
2022-09-26T21:03:51.402Z,56.86
2022-09-26T21:06:22.079Z,56.98
2022-09-26T21:08:50.353Z,56.90
2022-09-26T21:11:20.416Z,57.14
2022-09-26T21:13:48.759Z,56.98
2022-09-26T21:16:19.302Z,56.95
2022-09-26T21:18:51.255Z,56.97
2022-09-26T21:21:22.541Z,57.18
2022-09-26T21:24:28.214Z,56.82
2022-09-26T21:26:56.536Z,56.97
2022-09-26T21:29:25.264Z,56.62
2022-09-26T21:31:56.145Z,57.14
2022-09-26T21:34:27.927Z,57.17
2022-09-26T21:36:59.412Z,57.25
2022-09-26T21:39:28.769Z,56.98
2022-09-26T21:41:59.907Z,56.72
2022-09-26T21:44:30.497Z,57.01
2022-09-26T21:46:58.799Z,57.11
2022-09-26T21:49:28.464Z,57.01
2022-09-26T21:51:59.872Z,56.82
2022-09-26T21:54:32.586Z,56.89
2022-09-26T21:57:04.800Z,57.00
2022-09-26T21:59:33.161Z,57.10
2022-09-26T22:02:01.543Z,57.13
2022-09-26T22:04:31.169Z,56.97
2022-09-26T22:06:59.428Z,57.14
2022-09-26T22:09:27.717Z,57.02
2022-09-26T22:11:55.976Z,57.11
2022-09-26T22:14:24.230Z,57.34
2022-09-26T22:16:52.616Z,57.05
2022-09-26T22:19:21.035Z,57.27
2022-09-26T22:21:51.078Z,57.10
2022-09-26T22:24:19.512Z,57.00
2022-09-26T22:26:47.883Z,57.15
2022-09-26T22:29:16.629Z,57.64
2022-09-26T22:31:45.256Z,57.15
2022-09-26T22:34:14.045Z,56.96
2022-09-26T22:36:42.303Z,57.01
2022-09-26T22:39:11.882Z,57.19
2022-09-26T22:41:40.144Z,56.89
2022-09-26T22:44:09.187Z,56.80
2022-09-26T22:46:38.415Z,57.18
2022-09-26T22:49:06.952Z,57.08
2022-09-26T22:51:35.199Z,57.30
2022-09-26T22:54:03.725Z,57.33
2022-09-26T22:56:33.290Z,57.26
2022-09-26T22:59:02.907Z,57.05
2022-09-26T23:01:31.221Z,57.20
2022-09-26T23:04:00.452Z,57.39
2022-09-26T23:06:29.444Z,57.09
2022-09-26T23:08:58.006Z,57.14
2022-09-26T23:11:27.855Z,57.20
2022-09-26T23:13:57.414Z,57.50
2022-09-26T23:16:27.122Z,57.44
2022-09-26T23:18:55.933Z,57.19
2022-09-26T23:21:25.950Z,57.05
2022-09-26T23:23:55.824Z,57.19
2022-09-26T23:26:25.968Z,57.17
2022-09-26T23:28:55.473Z,57.39
2022-09-26T23:31:26.155Z,56.72
2022-09-26T23:33:55.347Z,57.20
2022-09-26T23:36:24.250Z,57.32
2022-09-26T23:38:52.588Z,57.46
2022-09-26T23:41:20.866Z,57.16
2022-09-26T23:43:49.481Z,57.52
2022-09-26T23:46:17.775Z,57.23
2022-09-26T23:48:47.493Z,57.44
2022-09-26T23:51:15.740Z,57.01
2022-09-26T23:53:43.948Z,57.18
2022-09-26T23:56:14.354Z,57.33
2022-09-26T23:58:42.655Z,57.56
